AFL277 UNKL-UNNT
Flight info
| Callsign | AFL277 |
|---|---|
| Flight time | N/A |
| Altitude | 35000 |
| Route | APRUS2F APRUS B926 NATIR NATIR1A |
| Aircraft | A321/M-SDE3FGHIRWY/LB1 |
Departure
| Time | 2026-05-01 14:43 |
|---|---|
| Airport | Krasnoyarsk International Airport (UNKL) |
Arrival
| Time | N/A |
|---|---|
| Airport | Novosibirsk Tolmachevo Airport (UNNT) |
| Time | Latitude | Longitude | Altitude | Speed | Heading |
|---|---|---|---|---|---|
| 2026-05-01 14:15 | 56.18149 | 92.47199 | 918 ft | 0 kts | 23° |
| 2026-05-01 14:33 | 56.18163 | 92.47210 | 917 ft | 4 kts | 23° |
| 2026-05-01 14:33 | 56.18189 | 92.47270 | 916 ft | 8 kts | 88° |
| 2026-05-01 14:33 | 56.18167 | 92.47368 | 917 ft | 10 kts | 113° |
| 2026-05-01 14:34 | 56.18137 | 92.47493 | 918 ft | 13 kts | 110° |
| 2026-05-01 14:34 | 56.18103 | 92.47647 | 919 ft | 15 kts | 112° |
| 2026-05-01 14:34 | 56.18065 | 92.47809 | 917 ft | 16 kts | 112° |
| 2026-05-01 14:34 | 56.18032 | 92.47942 | 917 ft | 11 kts | 116° |
| 2026-05-01 14:35 | 56.17965 | 92.47965 | 917 ft | 12 kts | 200° |
| 2026-05-01 14:35 | 56.17884 | 92.47917 | 916 ft | 12 kts | 180° |
| 2026-05-01 14:35 | 56.17829 | 92.48021 | 914 ft | 14 kts | 112° |
| 2026-05-01 14:35 | 56.17790 | 92.48185 | 913 ft | 16 kts | 113° |
| 2026-05-01 14:36 | 56.17747 | 92.48370 | 909 ft | 20 kts | 112° |
| 2026-05-01 14:36 | 56.17690 | 92.48606 | 905 ft | 23 kts | 112° |
| 2026-05-01 14:36 | 56.17631 | 92.48857 | 889 ft | 25 kts | 113° |
| 2026-05-01 14:36 | 56.17576 | 92.49085 | 905 ft | 16 kts | 112° |
| 2026-05-01 14:37 | 56.17530 | 92.49278 | 907 ft | 19 kts | 112° |
| 2026-05-01 14:37 | 56.17470 | 92.49530 | 894 ft | 25 kts | 112° |
| 2026-05-01 14:37 | 56.17411 | 92.49783 | 895 ft | 26 kts | 113° |
| 2026-05-01 14:37 | 56.17339 | 92.50082 | 901 ft | 23 kts | 113° |
| 2026-05-01 14:38 | 56.17283 | 92.50314 | 916 ft | 16 kts | 112° |
| 2026-05-01 14:38 | 56.17252 | 92.50447 | 927 ft | 12 kts | 112° |
| 2026-05-01 14:38 | 56.17209 | 92.50624 | 928 ft | 18 kts | 112° |
| 2026-05-01 14:38 | 56.17147 | 92.50889 | 923 ft | 24 kts | 112° |
| 2026-05-01 14:39 | 56.17082 | 92.51163 | 925 ft | 22 kts | 112° |
| 2026-05-01 14:39 | 56.17026 | 92.51397 | 935 ft | 18 kts | 112° |
| 2026-05-01 14:39 | 56.16977 | 92.51601 | 935 ft | 19 kts | 112° |
| 2026-05-01 14:39 | 56.16923 | 92.51829 | 935 ft | 20 kts | 112° |
| 2026-05-01 14:40 | 56.16873 | 92.51998 | 918 ft | 13 kts | 144° |
| 2026-05-01 14:40 | 56.16810 | 92.52032 | 926 ft | 6 kts | 171° |
| 2026-05-01 14:40 | 56.16772 | 92.52039 | 931 ft | 4 kts | 176° |
| 2026-05-01 14:40 | 56.16716 | 92.52045 | 933 ft | 13 kts | 176° |
| 2026-05-01 14:41 | 56.16657 | 92.52021 | 934 ft | 6 kts | 256° |
| 2026-05-01 14:41 | 56.16662 | 92.51962 | 934 ft | 0 kts | 293° |
| 2026-05-01 14:42 | 56.16671 | 92.51925 | 934 ft | 20 kts | 293° |
| 2026-05-01 14:42 | 56.16819 | 92.51310 | 931 ft | 88 kts | 292° |
| 2026-05-01 14:43 | 56.17117 | 92.50054 | 922 ft | 144 kts | 292° |
| 2026-05-01 14:43 | 56.17558 | 92.48194 | 1035 ft | 179 kts | 292° |
| 2026-05-01 14:43 | 56.18058 | 92.46258 | 1714 ft | 174 kts | 294° |
| 2026-05-01 14:43 | 56.18532 | 92.44279 | 2347 ft | 177 kts | 292° |
| 2026-05-01 14:44 | 56.18990 | 92.42282 | 2908 ft | 182 kts | 292° |
| 2026-05-01 14:44 | 56.20033 | 92.37794 | 3722 ft | 214 kts | 292° |
| 2026-05-01 14:44 | 56.20625 | 92.35283 | 4085 ft | 227 kts | 292° |
| 2026-05-01 14:45 | 56.21248 | 92.32642 | 4360 ft | 241 kts | 292° |
| 2026-05-01 14:45 | 56.21469 | 92.26609 | 4964 ft | 267 kts | 249° |
| 2026-05-01 14:45 | 56.20820 | 92.23737 | 5446 ft | 272 kts | 247° |
| 2026-05-01 14:46 | 56.20099 | 92.20612 | 6081 ft | 274 kts | 248° |
| 2026-05-01 14:46 | 56.18741 | 92.14592 | 7296 ft | 276 kts | 249° |
| 2026-05-01 14:46 | 56.18043 | 92.11445 | 7932 ft | 278 kts | 249° |
| 2026-05-01 14:47 | 56.17337 | 92.08244 | 8553 ft | 280 kts | 249° |
| 2026-05-01 14:47 | 56.16631 | 92.05042 | 9192 ft | 282 kts | 250° |
| 2026-05-01 14:47 | 56.15916 | 92.01785 | 9805 ft | 284 kts | 250° |
| 2026-05-01 14:48 | 56.14464 | 91.95171 | 10712 ft | 300 kts | 250° |
| 2026-05-01 14:48 | 56.13692 | 91.91655 | 11004 ft | 315 kts | 250° |
| 2026-05-01 14:48 | 56.12057 | 91.84251 | 11912 ft | 328 kts | 250° |
| 2026-05-01 14:49 | 56.10399 | 91.76781 | 13094 ft | 331 kts | 251° |
| 2026-05-01 14:49 | 56.08761 | 91.69416 | 14183 ft | 335 kts | 251° |
| 2026-05-01 14:50 | 56.07641 | 91.64395 | 14883 ft | 339 kts | 251° |
| 2026-05-01 14:50 | 56.05314 | 91.53999 | 16285 ft | 345 kts | 252° |
| 2026-05-01 14:51 | 56.04429 | 91.50060 | 16791 ft | 347 kts | 252° |
| 2026-05-01 14:51 | 56.02653 | 91.42167 | 17762 ft | 350 kts | 253° |
| 2026-05-01 14:52 | 56.01194 | 91.34091 | 18703 ft | 349 kts | 262° |
| 2026-05-01 14:52 | 56.00718 | 91.29913 | 19152 ft | 351 kts | 262° |
| 2026-05-01 14:52 | 55.99757 | 91.21456 | 19974 ft | 358 kts | 262° |
| 2026-05-01 14:53 | 55.99249 | 91.17179 | 20389 ft | 360 kts | 262° |
| 2026-05-01 14:53 | 55.98729 | 91.12881 | 20833 ft | 362 kts | 262° |
| 2026-05-01 14:53 | 55.98193 | 91.08507 | 21249 ft | 365 kts | 262° |
| 2026-05-01 14:53 | 55.97657 | 91.04178 | 21644 ft | 368 kts | 262° |
| 2026-05-01 14:54 | 55.97110 | 90.99802 | 22044 ft | 370 kts | 262° |
| 2026-05-01 14:54 | 55.96567 | 90.95480 | 22435 ft | 372 kts | 262° |
| 2026-05-01 14:54 | 55.96018 | 90.91119 | 22795 ft | 375 kts | 262° |
| 2026-05-01 14:54 | 55.95462 | 90.86731 | 23173 ft | 377 kts | 262° |
| 2026-05-01 14:55 | 55.94895 | 90.82265 | 23566 ft | 379 kts | 262° |
| 2026-05-01 14:55 | 55.94321 | 90.77754 | 23950 ft | 381 kts | 262° |
| 2026-05-01 14:55 | 55.93742 | 90.73238 | 24330 ft | 383 kts | 261° |
| 2026-05-01 14:55 | 55.93160 | 90.68693 | 24681 ft | 385 kts | 262° |
| 2026-05-01 14:56 | 55.92585 | 90.64219 | 25038 ft | 387 kts | 262° |
| 2026-05-01 14:56 | 55.91992 | 90.59615 | 25397 ft | 388 kts | 262° |
| 2026-05-01 14:56 | 55.91406 | 90.55070 | 25627 ft | 393 kts | 262° |
| 2026-05-01 14:56 | 55.90792 | 90.50327 | 25775 ft | 400 kts | 262° |
| 2026-05-01 14:57 | 55.90174 | 90.45581 | 25922 ft | 406 kts | 261° |
| 2026-05-01 14:57 | 55.88897 | 90.35834 | 26185 ft | 417 kts | 261° |
| 2026-05-01 14:57 | 55.88238 | 90.30835 | 26313 ft | 423 kts | 261° |
| 2026-05-01 14:58 | 55.87565 | 90.25738 | 26439 ft | 428 kts | 261° |
| 2026-05-01 14:58 | 55.86897 | 90.20698 | 26555 ft | 433 kts | 261° |
| 2026-05-01 14:58 | 55.86210 | 90.15537 | 26664 ft | 438 kts | 261° |
| 2026-05-01 14:58 | 55.85522 | 90.10377 | 26769 ft | 442 kts | 260° |
| 2026-05-01 14:59 | 55.84878 | 90.05572 | 26867 ft | 446 kts | 260° |
| 2026-05-01 14:59 | 55.84154 | 90.00194 | 26961 ft | 450 kts | 259° |
| 2026-05-01 14:59 | 55.83449 | 89.94950 | 27141 ft | 451 kts | 259° |
| 2026-05-01 14:59 | 55.82711 | 89.89524 | 27397 ft | 452 kts | 260° |
| 2026-05-01 15:00 | 55.81327 | 89.79385 | 27926 ft | 450 kts | 261° |
| 2026-05-01 15:00 | 55.80598 | 89.74043 | 28241 ft | 449 kts | 260° |
| 2026-05-01 15:00 | 55.79871 | 89.68764 | 28574 ft | 447 kts | 259° |
| 2026-05-01 15:01 | 55.79134 | 89.63425 | 28868 ft | 446 kts | 259° |
| 2026-05-01 15:01 | 55.78411 | 89.58197 | 29111 ft | 445 kts | 260° |
| 2026-05-01 15:01 | 55.77677 | 89.52917 | 29343 ft | 445 kts | 260° |
| 2026-05-01 15:01 | 55.76940 | 89.47627 | 29624 ft | 443 kts | 260° |
| 2026-05-01 15:02 | 55.76210 | 89.42407 | 29927 ft | 441 kts | 261° |
| 2026-05-01 15:02 | 55.75775 | 89.39273 | 30116 ft | 440 kts | 259° |
| 2026-05-01 15:02 | 55.74867 | 89.32806 | 30419 ft | 439 kts | 258° |
| 2026-05-01 15:02 | 55.74128 | 89.27567 | 30582 ft | 440 kts | 260° |
| 2026-05-01 15:03 | 55.73457 | 89.22813 | 30783 ft | 440 kts | 259° |
| 2026-05-01 15:03 | 55.72714 | 89.17584 | 31051 ft | 439 kts | 259° |
| 2026-05-01 15:03 | 55.71977 | 89.12411 | 31268 ft | 439 kts | 259° |
| 2026-05-01 15:03 | 55.71241 | 89.07256 | 31501 ft | 438 kts | 259° |
| 2026-05-01 15:04 | 55.70493 | 89.02043 | 31757 ft | 437 kts | 259° |
| 2026-05-01 15:04 | 55.69745 | 88.96845 | 32010 ft | 436 kts | 259° |
| 2026-05-01 15:04 | 55.69085 | 88.92083 | 32090 ft | 436 kts | 260° |
| 2026-05-01 15:05 | 55.67707 | 88.81946 | 32087 ft | 435 kts | 260° |
| 2026-05-01 15:05 | 55.66332 | 88.71886 | 32093 ft | 436 kts | 260° |
| 2026-05-01 15:06 | 55.64917 | 88.61646 | 32076 ft | 435 kts | 260° |
| 2026-05-01 15:06 | 55.63535 | 88.51720 | 32081 ft | 436 kts | 260° |
| 2026-05-01 15:07 | 55.62112 | 88.41569 | 32079 ft | 438 kts | 260° |
| 2026-05-01 15:07 | 55.60700 | 88.31566 | 32081 ft | 438 kts | 259° |
| 2026-05-01 15:08 | 55.59283 | 88.21600 | 32076 ft | 438 kts | 259° |
| 2026-05-01 15:08 | 55.57910 | 88.11992 | 32079 ft | 437 kts | 259° |
| 2026-05-01 15:09 | 55.56422 | 88.01648 | 32075 ft | 438 kts | 259° |
| 2026-05-01 15:09 | 55.54985 | 87.91707 | 32074 ft | 437 kts | 259° |
| 2026-05-01 15:10 | 55.53491 | 87.81463 | 32074 ft | 437 kts | 259° |
| 2026-05-01 15:10 | 55.51236 | 87.66097 | 32071 ft | 438 kts | 259° |
| 2026-05-01 15:11 | 55.49031 | 87.51256 | 32071 ft | 436 kts | 259° |
| 2026-05-01 15:12 | 55.47487 | 87.40994 | 32074 ft | 437 kts | 259° |
| 2026-05-01 15:12 | 55.45144 | 87.25541 | 32064 ft | 439 kts | 258° |
| 2026-05-01 15:14 | 55.41324 | 87.00661 | 32055 ft | 438 kts | 257° |
| 2026-05-01 15:14 | 55.39065 | 86.86117 | 32045 ft | 437 kts | 257° |
| 2026-05-01 15:15 | 55.35857 | 86.65663 | 32035 ft | 439 kts | 257° |
| 2026-05-01 15:16 | 55.32658 | 86.45529 | 32041 ft | 439 kts | 257° |
| 2026-05-01 15:18 | 55.28575 | 86.20176 | 32049 ft | 440 kts | 256° |
| 2026-05-01 15:19 | 55.26503 | 85.99888 | 32045 ft | 438 kts | 266° |
| 2026-05-01 15:19 | 55.25795 | 85.85045 | 32038 ft | 438 kts | 266° |
| 2026-05-01 15:20 | 55.25026 | 85.69300 | 32036 ft | 440 kts | 266° |
| 2026-05-01 15:21 | 55.24494 | 85.58750 | 32029 ft | 437 kts | 266° |
| 2026-05-01 15:21 | 55.23969 | 85.48499 | 32018 ft | 415 kts | 266° |
| 2026-05-01 15:22 | 55.23189 | 85.33625 | 32013 ft | 414 kts | 265° |
| 2026-05-01 15:22 | 55.22674 | 85.23971 | 32009 ft | 413 kts | 265° |
| 2026-05-01 15:23 | 55.22140 | 85.14110 | 32008 ft | 412 kts | 265° |
| 2026-05-01 15:23 | 55.21612 | 85.04495 | 31985 ft | 398 kts | 265° |
| 2026-05-01 15:24 | 55.21347 | 84.99749 | 31634 ft | 393 kts | 265° |
| 2026-05-01 15:24 | 55.21085 | 84.95044 | 30865 ft | 397 kts | 264° |
| 2026-05-01 15:24 | 55.20819 | 84.90300 | 30015 ft | 402 kts | 264° |
| 2026-05-01 15:24 | 55.20549 | 84.85569 | 29209 ft | 405 kts | 264° |
| 2026-05-01 15:25 | 55.20292 | 84.81074 | 28492 ft | 406 kts | 264° |
| 2026-05-01 15:25 | 55.20003 | 84.76215 | 27907 ft | 403 kts | 263° |
| 2026-05-01 15:25 | 55.19582 | 84.71491 | 27331 ft | 400 kts | 259° |
| 2026-05-01 15:25 | 55.18978 | 84.66872 | 26758 ft | 397 kts | 256° |
| 2026-05-01 15:26 | 55.18193 | 84.62337 | 26218 ft | 393 kts | 252° |
| 2026-05-01 15:26 | 55.17324 | 84.57879 | 25652 ft | 391 kts | 251° |
| 2026-05-01 15:26 | 55.16460 | 84.53507 | 25127 ft | 387 kts | 251° |
| 2026-05-01 15:26 | 55.15580 | 84.49062 | 24563 ft | 384 kts | 251° |
| 2026-05-01 15:27 | 55.14733 | 84.44788 | 24032 ft | 381 kts | 251° |
| 2026-05-01 15:27 | 55.13926 | 84.40714 | 23511 ft | 379 kts | 251° |
| 2026-05-01 15:27 | 55.13078 | 84.36443 | 22995 ft | 376 kts | 251° |
| 2026-05-01 15:28 | 55.11397 | 84.28004 | 21998 ft | 370 kts | 250° |
| 2026-05-01 15:28 | 55.10627 | 84.24150 | 21553 ft | 367 kts | 250° |
| 2026-05-01 15:28 | 55.09798 | 84.20001 | 21065 ft | 364 kts | 250° |
| 2026-05-01 15:29 | 55.08270 | 84.12382 | 20138 ft | 360 kts | 250° |
| 2026-05-01 15:29 | 55.07449 | 84.08292 | 19652 ft | 357 kts | 250° |
| 2026-05-01 15:29 | 55.05835 | 84.00287 | 18720 ft | 352 kts | 250° |
| 2026-05-01 15:30 | 55.04226 | 83.92340 | 17795 ft | 346 kts | 250° |
| 2026-05-01 15:31 | 55.01047 | 83.76817 | 15903 ft | 339 kts | 250° |
| 2026-05-01 15:31 | 54.99473 | 83.69237 | 15007 ft | 335 kts | 250° |
| 2026-05-01 15:32 | 54.97958 | 83.61964 | 14144 ft | 331 kts | 250° |
| 2026-05-01 15:32 | 54.96389 | 83.54453 | 14005 ft | 333 kts | 250° |
| 2026-05-01 15:33 | 54.94046 | 83.43291 | 13307 ft | 331 kts | 250° |
| 2026-05-01 15:34 | 54.91785 | 83.32561 | 12017 ft | 326 kts | 249° |